sensor_id;sensor_type;location;lat;lon;timestamp;pressure;altitude;pressure_sealevel;temperature;humidity
22283;BME280;11310;51.528;21.204;2023-06-26T00:02:10;99920.03;;;15.92;100.00
22283;BME280;11310;51.528;21.204;2023-06-26T00:04:41;99927.97;;;15.92;100.00
22283;BME280;11310;51.528;21.204;2023-06-26T00:07:10;99928.78;;;15.92;100.00
22283;BME280;11310;51.528;21.204;2023-06-26T00:09:40;99929.66;;;15.93;100.00
22283;BME280;11310;51.528;21.204;2023-06-26T00:12:10;99932.59;;;15.88;100.00
22283;BME280;11310;51.528;21.204;2023-06-26T00:14:39;99938.31;;;15.82;100.00
22283;BME280;11310;51.528;21.204;2023-06-26T00:17:08;99933.25;;;15.79;100.00
22283;BME280;11310;51.528;21.204;2023-06-26T00:19:40;99935.59;;;15.71;100.00
22283;BME280;11310;51.528;21.204;2023-06-26T00:22:10;99924.56;;;15.65;100.00
22283;BME280;11310;51.528;21.204;2023-06-26T00:24:41;99928.28;;;15.62;100.00
22283;BME280;11310;51.528;21.204;2023-06-26T00:27:11;99930.25;;;15.59;100.00
22283;BME280;11310;51.528;21.204;2023-06-26T00:29:41;99930.50;;;15.56;100.00
22283;BME280;11310;51.528;21.204;2023-06-26T00:32:09;99926.13;;;15.55;100.00
22283;BME280;11310;51.528;21.204;2023-06-26T00:34:40;99933.66;;;15.48;100.00
22283;BME280;11310;51.528;21.204;2023-06-26T00:37:08;99932.34;;;15.41;100.00
22283;BME280;11310;51.528;21.204;2023-06-26T00:39:37;99933.50;;;15.37;100.00
22283;BME280;11310;51.528;21.204;2023-06-26T00:42:08;99938.22;;;15.32;100.00
22283;BME280;11310;51.528;21.204;2023-06-26T00:44:37;99939.28;;;15.30;100.00
22283;BME280;11310;51.528;21.204;2023-06-26T00:47:14;99934.84;;;15.30;100.00
22283;BME280;11310;51.528;21.204;2023-06-26T00:49:44;99927.22;;;15.26;100.00
22283;BME280;11310;51.528;21.204;2023-06-26T00:52:13;99933.34;;;15.26;100.00
22283;BME280;11310;51.528;21.204;2023-06-26T00:54:42;99929.56;;;15.30;100.00
22283;BME280;11310;51.528;21.204;2023-06-26T00:57:10;99935.59;;;15.32;100.00
22283;BME280;11310;51.528;21.204;2023-06-26T00:59:41;99939.28;;;15.30;100.00
22283;BME280;11310;51.528;21.204;2023-06-26T01:02:11;99935.03;;;15.27;100.00
22283;BME280;11310;51.528;21.204;2023-06-26T01:04:46;99938.66;;;15.26;100.00
22283;BME280;11310;51.528;21.204;2023-06-26T01:07:18;99926.34;;;15.25;100.00
22283;BME280;11310;51.528;21.204;2023-06-26T01:09:48;99929.75;;;15.27;100.00
22283;BME280;11310;51.528;21.204;2023-06-26T01:12:17;99936.50;;;15.19;100.00
22283;BME280;11310;51.528;21.204;2023-06-26T01:14:48;99932.47;;;15.13;100.00
22283;BME280;11310;51.528;21.204;2023-06-26T01:17:21;99932.56;;;15.12;100.00
22283;BME280;11310;51.528;21.204;2023-06-26T01:19:52;99925.88;;;15.06;100.00
22283;BME280;11310;51.528;21.204;2023-06-26T01:22:25;99925.66;;;14.97;100.00
22283;BME280;11310;51.528;21.204;2023-06-26T01:25:13;99921.94;;;14.87;100.00
22283;BME280;11310;51.528;21.204;2023-06-26T01:27:49;99923.88;;;14.83;100.00
22283;BME280;11310;51.528;21.204;2023-06-26T01:30:19;99912.59;;;14.81;100.00
22283;BME280;11310;51.528;21.204;2023-06-26T01:32:49;99918.59;;;14.83;100.00
22283;BME280;11310;51.528;21.204;2023-06-26T01:35:20;99912.69;;;14.80;100.00
22283;BME280;11310;51.528;21.204;2023-06-26T01:37:49;99908.63;;;14.74;100.00
22283;BME280;11310;51.528;21.204;2023-06-26T01:40:19;99909.91;;;14.69;100.00
22283;BME280;11310;51.528;21.204;2023-06-26T01:42:54;99909.91;;;14.69;100.00
22283;BME280;11310;51.528;21.204;2023-06-26T01:45:27;99907.34;;;14.67;100.00
22283;BME280;11310;51.528;21.204;2023-06-26T01:47:59;99913.59;;;14.66;100.00
22283;BME280;11310;51.528;21.204;2023-06-26T01:50:31;99914.72;;;14.62;100.00
22283;BME280;11310;51.528;21.204;2023-06-26T01:53:04;99911.53;;;14.57;100.00
22283;BME280;11310;51.528;21.204;2023-06-26T01:55:38;99913.63;;;14.52;100.00
22283;BME280;11310;51.528;21.204;2023-06-26T01:58:10;99912.13;;;14.48;100.00
22283;BME280;11310;51.528;21.204;2023-06-26T02:00:40;99909.75;;;14.44;100.00
22283;BME280;11310;51.528;21.204;2023-06-26T02:03:08;99909.97;;;14.41;100.00
22283;BME280;11310;51.528;21.204;2023-06-26T02:05:40;99908.16;;;14.41;100.00
22283;BME280;11310;51.528;21.204;2023-06-26T02:08:10;99910.91;;;14.40;100.00
22283;BME280;11310;51.528;21.204;2023-06-26T02:10:48;99906.97;;;14.33;100.00
22283;BME280;11310;51.528;21.204;2023-06-26T02:13:20;99910.19;;;14.24;100.00
22283;BME280;11310;51.528;21.204;2023-06-26T02:15:49;99912.19;;;14.20;100.00
22283;BME280;11310;51.528;21.204;2023-06-26T02:18:21;99911.38;;;14.18;100.00
22283;BME280;11310;51.528;21.204;2023-06-26T02:20:50;99914.97;;;14.17;100.00
22283;BME280;11310;51.528;21.204;2023-06-26T02:23:22;99904.50;;;14.16;100.00
22283;BME280;11310;51.528;21.204;2023-06-26T02:25:53;99903.31;;;14.21;100.00
22283;BME280;11310;51.528;21.204;2023-06-26T02:28:24;99897.63;;;14.27;100.00
22283;BME280;11310;51.528;21.204;2023-06-26T02:30:52;99897.81;;;14.24;100.00
22283;BME280;11310;51.528;21.204;2023-06-26T02:33:25;99899.22;;;14.16;100.00
22283;BME280;11310;51.528;21.204;2023-06-26T02:35:53;99893.47;;;14.09;100.00
22283;BME280;11310;51.528;21.204;2023-06-26T02:38:25;99905.72;;;14.10;100.00
22283;BME280;11310;51.528;21.204;2023-06-26T02:40:53;99904.03;;;14.09;100.00
22283;BME280;11310;51.528;21.204;2023-06-26T02:43:24;99904.97;;;14.08;100.00
22283;BME280;11310;51.528;21.204;2023-06-26T02:45:53;99903.84;;;14.12;100.00
22283;BME280;11310;51.528;21.204;2023-06-26T02:48:22;99903.63;;;14.15;100.00
22283;BME280;11310;51.528;21.204;2023-06-26T02:50:50;99902.59;;;14.18;100.00
22283;BME280;11310;51.528;21.204;2023-06-26T02:53:25;99903.84;;;14.12;100.00
22283;BME280;11310;51.528;21.204;2023-06-26T02:55:54;99902.16;;;14.11;100.00
22283;BME280;11310;51.528;21.204;2023-06-26T02:58:24;99912.72;;;14.11;100.00
22283;BME280;11310;51.528;21.204;2023-06-26T03:00:53;99908.47;;;14.09;100.00
22283;BME280;11310;51.528;21.204;2023-06-26T03:03:22;99906.66;;;14.09;100.00
22283;BME280;11310;51.528;21.204;2023-06-26T03:05:54;99903.63;;;14.15;100.00
22283;BME280;11310;51.528;21.204;2023-06-26T03:08:30;99899.72;;;14.22;100.00
22283;BME280;11310;51.528;21.204;2023-06-26T03:10:59;99903.47;;;14.18;100.00
22283;BME280;11310;51.528;21.204;2023-06-26T03:13:30;99901.94;;;14.14;100.00
22283;BME280;11310;51.528;21.204;2023-06-26T03:15:58;99897.63;;;14.13;100.00
22283;BME280;11310;51.528;21.204;2023-06-26T03:18:27;99894.25;;;14.11;100.00
22283;BME280;11310;51.528;21.204;2023-06-26T03:20:56;99898.56;;;14.12;100.00
22283;BME280;11310;51.528;21.204;2023-06-26T03:23:25;99902.03;;;14.13;100.00
22283;BME280;11310;51.528;21.204;2023-06-26T03:25:54;99893.84;;;14.17;100.00
22283;BME280;11310;51.528;21.204;2023-06-26T03:28:31;99897.00;;;14.24;100.00
22283;BME280;11310;51.528;21.204;2023-06-26T03:31:01;99897.25;;;14.33;100.00
22283;BME280;11310;51.528;21.204;2023-06-26T03:33:31;99900.25;;;14.41;100.00
22283;BME280;11310;51.528;21.204;2023-06-26T03:36:00;99905.03;;;14.49;100.00
22283;BME280;11310;51.528;21.204;2023-06-26T03:38:29;99895.88;;;14.54;100.00
22283;BME280;11310;51.528;21.204;2023-06-26T03:40:59;99901.72;;;14.59;100.00
22283;BME280;11310;51.528;21.204;2023-06-26T03:43:29;99896.16;;;14.64;100.00
22283;BME280;11310;51.528;21.204;2023-06-26T03:46:08;99899.13;;;14.72;100.00
22283;BME280;11310;51.528;21.204;2023-06-26T03:48:36;99905.72;;;14.79;100.00
22283;BME280;11310;51.528;21.204;2023-06-26T03:51:06;99907.00;;;14.86;100.00
22283;BME280;11310;51.528;21.204;2023-06-26T03:53:39;99911.91;;;14.92;100.00
22283;BME280;11310;51.528;21.204;2023-06-26T03:56:07;99910.44;;;15.00;100.00
22283;BME280;11310;51.528;21.204;2023-06-26T03:58:35;99907.28;;;15.08;100.00
22283;BME280;11310;51.528;21.204;2023-06-26T04:01:04;99911.13;;;15.16;100.00
22283;BME280;11310;51.528;21.204;2023-06-26T04:03:35;99912.59;;;15.20;100.00
22283;BME280;11310;51.528;21.204;2023-06-26T04:06:04;99915.59;;;15.28;100.00
22283;BME280;11310;51.528;21.204;2023-06-26T04:08:33;99919.34;;;15.38;100.00
22283;BME280;11310;51.528;21.204;2023-06-26T04:11:05;99923.19;;;15.47;100.00
22283;BME280;11310;51.528;21.204;2023-06-26T04:13:34;99921.69;;;15.55;100.00
22283;BME280;11310;51.528;21.204;2023-06-26T04:16:04;99921.16;;;15.63;100.00
22283;BME280;11310;51.528;21.204;2023-06-26T04:18:35;99924.16;;;15.71;100.00
22283;BME280;11310;51.528;21.204;2023-06-26T04:21:05;99920.25;;;15.76;100.00
22283;BME280;11310;51.528;21.204;2023-06-26T04:23:34;99916.31;;;15.82;100.00
22283;BME280;11310;51.528;21.204;2023-06-26T04:26:06;99916.72;;;15.88;100.00
22283;BME280;11310;51.528;21.204;2023-06-26T04:28:35;99912.50;;;15.98;100.00
22283;BME280;11310;51.528;21.204;2023-06-26T04:31:05;99909.09;;;16.09;100.00
22283;BME280;11310;51.528;21.204;2023-06-26T04:33:35;99904.63;;;16.22;100.00
22283;BME280;11310;51.528;21.204;2023-06-26T04:36:12;99902.19;;;16.31;100.00
22283;BME280;11310;51.528;21.204;2023-06-26T04:38:40;99917.13;;;16.45;100.00
22283;BME280;11310;51.528;21.204;2023-06-26T04:41:09;99911.91;;;16.56;100.00
22283;BME280;11310;51.528;21.204;2023-06-26T04:43:37;99907.53;;;16.67;100.00
22283;BME280;11310;51.528;21.204;2023-06-26T04:46:06;99912.03;;;16.78;100.00
22283;BME280;11310;51.528;21.204;2023-06-26T04:48:36;99912.72;;;16.92;100.00
22283;BME280;11310;51.528;21.204;2023-06-26T04:51:05;99912.75;;;17.03;100.00
22283;BME280;11310;51.528;21.204;2023-06-26T04:53:33;99914.72;;;17.12;100.00
22283;BME280;11310;51.528;21.204;2023-06-26T04:56:02;99910.56;;;17.21;100.00
22283;BME280;11310;51.528;21.204;2023-06-26T04:58:32;99913.34;;;17.30;100.00
22283;BME280;11310;51.528;21.204;2023-06-26T05:01:00;99903.13;;;17.37;100.00
22283;BME280;11310;51.528;21.204;2023-06-26T05:03:30;99911.38;;;17.45;100.00
22283;BME280;11310;51.528;21.204;2023-06-26T05:06:00;99913.13;;;17.57;100.00
22283;BME280;11310;51.528;21.204;2023-06-26T05:08:35;99910.38;;;17.69;100.00
22283;BME280;11310;51.528;21.204;2023-06-26T05:11:03;99915.69;;;17.80;100.00
22283;BME280;11310;51.528;21.204;2023-06-26T05:13:32;99917.63;;;17.89;100.00
22283;BME280;11310;51.528;21.204;2023-06-26T05:16:01;99918.84;;;17.96;100.00
22283;BME280;11310;51.528;21.204;2023-06-26T05:18:30;99911.97;;;18.05;100.00
22283;BME280;11310;51.528;21.204;2023-06-26T05:21:00;99914.66;;;18.16;100.00
22283;BME280;11310;51.528;21.204;2023-06-26T05:23:30;99919.56;;;18.31;100.00
22283;BME280;11310;51.528;21.204;2023-06-26T05:26:00;99918.63;;;18.43;100.00
22283;BME280;11310;51.528;21.204;2023-06-26T05:28:29;99912.81;;;18.49;100.00
22283;BME280;11310;51.528;21.204;2023-06-26T05:30:59;99900.97;;;18.64;100.00
22283;BME280;11310;51.528;21.204;2023-06-26T05:33:29;99915.09;;;18.76;99.43
22283;BME280;11310;51.528;21.204;2023-06-26T05:36:00;99906.47;;;18.83;99.36
22283;BME280;11310;51.528;21.204;2023-06-26T05:38:32;99912.50;;;18.96;98.53
22283;BME280;11310;51.528;21.204;2023-06-26T05:41:01;99917.06;;;19.05;97.91
22283;BME280;11310;51.528;21.204;2023-06-26T05:43:31;99919.53;;;19.18;97.44
22283;BME280;11310;51.528;21.204;2023-06-26T05:45:59;99913.38;;;19.28;97.35
22283;BME280;11310;51.528;21.204;2023-06-26T05:48:28;99910.72;;;19.49;96.71
22283;BME280;11310;51.528;21.204;2023-06-26T05:50:57;99912.78;;;19.66;95.78
22283;BME280;11310;51.528;21.204;2023-06-26T05:53:27;99911.63;;;19.79;95.18
22283;BME280;11310;51.528;21.204;2023-06-26T05:55:57;99902.31;;;19.94;94.86
22283;BME280;11310;51.528;21.204;2023-06-26T05:58:27;99908.03;;;20.10;94.53
22283;BME280;11310;51.528;21.204;2023-06-26T06:00:58;99904.84;;;20.26;93.69
22283;BME280;11310;51.528;21.204;2023-06-26T06:03:27;99903.66;;;20.39;92.57
22283;BME280;11310;51.528;21.204;2023-06-26T06:05:58;99907.63;;;20.54;91.68
22283;BME280;11310;51.528;21.204;2023-06-26T06:08:28;99898.56;;;20.66;91.64
22283;BME280;11310;51.528;21.204;2023-06-26T06:10:57;99902.50;;;20.81;90.66
22283;BME280;11310;51.528;21.204;2023-06-26T06:13:25;99900.19;;;20.98;89.71
22283;BME280;11310;51.528;21.204;2023-06-26T06:15:54;99903.13;;;21.14;89.62
22283;BME280;11310;51.528;21.204;2023-06-26T06:18:23;99900.03;;;21.28;88.91
22283;BME280;11310;51.528;21.204;2023-06-26T06:20:52;99906.63;;;21.43;87.95
22283;BME280;11310;51.528;21.204;2023-06-26T06:23:21;99900.03;;;21.56;87.36
22283;BME280;11310;51.528;21.204;2023-06-26T06:25:51;99905.63;;;21.72;87.11
22283;BME280;11310;51.528;21.204;2023-06-26T06:28:20;99902.69;;;21.85;86.91
22283;BME280;11310;51.528;21.204;2023-06-26T06:30:48;99903.19;;;21.98;85.92
22283;BME280;11310;51.528;21.204;2023-06-26T06:33:18;99896.97;;;22.07;85.11
22283;BME280;11310;51.528;21.204;2023-06-26T06:35:47;99897.47;;;22.20;84.40
22283;BME280;11310;51.528;21.204;2023-06-26T06:38:18;99896.59;;;22.29;84.41
22283;BME280;11310;51.528;21.204;2023-06-26T06:40:49;99886.13;;;22.45;83.99
22283;BME280;11310;51.528;21.204;2023-06-26T06:43:18;99888.09;;;22.52;83.92
22283;BME280;11310;51.528;21.204;2023-06-26T06:45:47;99887.44;;;22.68;83.81
22283;BME280;11310;51.528;21.204;2023-06-26T06:48:16;99897.47;;;22.83;83.43
22283;BME280;11310;51.528;21.204;2023-06-26T06:50:47;99891.44;;;22.99;82.90
22283;BME280;11310;51.528;21.204;2023-06-26T06:53:17;99889.78;;;23.15;82.50
22283;BME280;11310;51.528;21.204;2023-06-26T06:55:47;99889.47;;;23.36;81.00
22283;BME280;11310;51.528;21.204;2023-06-26T06:58:18;99893.59;;;23.48;80.40
22283;BME280;11310;51.528;21.204;2023-06-26T07:00:47;99891.88;;;23.64;79.97
22283;BME280;11310;51.528;21.204;2023-06-26T07:03:16;99883.66;;;23.83;79.31
22283;BME280;11310;51.528;21.204;2023-06-26T07:05:45;99890.59;;;23.94;78.08
22283;BME280;11310;51.528;21.204;2023-06-26T07:08:19;99884.28;;;24.03;78.13
22283;BME280;11310;51.528;21.204;2023-06-26T07:10:47;99885.84;;;24.13;78.23
22283;BME280;11310;51.528;21.204;2023-06-26T07:13:16;99881.94;;;24.33;77.64
22283;BME280;11310;51.528;21.204;2023-06-26T07:15:46;99880.69;;;24.53;77.54
22283;BME280;11310;51.528;21.204;2023-06-26T07:18:16;99877.91;;;24.71;75.06
22283;BME280;11310;51.528;21.204;2023-06-26T07:20:50;99884.16;;;24.79;73.61
22283;BME280;11310;51.528;21.204;2023-06-26T07:23:18;99891.72;;;24.92;73.20
22283;BME280;11310;51.528;21.204;2023-06-26T07:25:47;99879.31;;;24.99;72.17
22283;BME280;11310;51.528;21.204;2023-06-26T07:28:16;99886.06;;;25.11;72.15
22283;BME280;11310;51.528;21.204;2023-06-26T07:30:51;99884.03;;;25.13;72.09
22283;BME280;11310;51.528;21.204;2023-06-26T07:33:20;99883.72;;;25.24;71.62
22283;BME280;11310;51.528;21.204;2023-06-26T07:35:49;99889.47;;;25.37;71.63
22283;BME280;11310;51.528;21.204;2023-06-26T07:38:18;99889.78;;;25.50;71.26
22283;BME280;11310;51.528;21.204;2023-06-26T07:40:47;99885.75;;;25.54;70.67
22283;BME280;11310;51.528;21.204;2023-06-26T07:43:16;99881.06;;;25.64;70.63
22283;BME280;11310;51.528;21.204;2023-06-26T07:45:46;99873.13;;;25.70;70.41
22283;BME280;11310;51.528;21.204;2023-06-26T07:48:16;99879.69;;;25.84;69.98
22283;BME280;11310;51.528;21.204;2023-06-26T07:50:46;99884.06;;;26.01;70.20
22283;BME280;11310;51.528;21.204;2023-06-26T07:53:14;99882.66;;;26.21;69.34
22283;BME280;11310;51.528;21.204;2023-06-26T07:55:43;99874.41;;;26.30;68.83
22283;BME280;11310;51.528;21.204;2023-06-26T07:58:12;99875.38;;;26.29;67.76
22283;BME280;11310;51.528;21.204;2023-06-26T08:00:42;99872.84;;;26.36;67.65
22283;BME280;11310;51.528;21.204;2023-06-26T08:03:11;99875.63;;;26.50;67.06
22283;BME280;11310;51.528;21.204;2023-06-26T08:06:01;99871.03;;;26.67;66.00
22283;BME280;11310;51.528;21.204;2023-06-26T08:08:30;99873.47;;;26.84;64.60
22283;BME280;11310;51.528;21.204;2023-06-26T08:10:59;99870.19;;;26.97;64.05
22283;BME280;11310;51.528;21.204;2023-06-26T08:13:28;99870.84;;;26.99;62.75
22283;BME280;11310;51.528;21.204;2023-06-26T08:15:57;99865.59;;;27.05;62.48
22283;BME280;11310;51.528;21.204;2023-06-26T08:18:27;99866.69;;;27.19;62.79
22283;BME280;11310;51.528;21.204;2023-06-26T08:20:56;99866.09;;;27.31;61.26
22283;BME280;11310;51.528;21.204;2023-06-26T08:23:26;99871.38;;;27.25;61.73
22283;BME280;11310;51.528;21.204;2023-06-26T08:25:55;99866.81;;;27.25;59.12
22283;BME280;11310;51.528;21.204;2023-06-26T08:28:25;99866.69;;;27.41;59.33
22283;BME280;11310;51.528;21.204;2023-06-26T08:30:54;99869.06;;;27.59;57.87
22283;BME280;11310;51.528;21.204;2023-06-26T08:33:23;99871.44;;;27.76;56.55
22283;BME280;11310;51.528;21.204;2023-06-26T08:35:51;99872.25;;;27.77;55.58
22283;BME280;11310;51.528;21.204;2023-06-26T08:38:20;99866.91;;;27.91;56.00
22283;BME280;11310;51.528;21.204;2023-06-26T08:40:50;99864.53;;;28.11;54.77
22283;BME280;11310;51.528;21.204;2023-06-26T08:43:19;99862.28;;;28.29;54.70
22283;BME280;11310;51.528;21.204;2023-06-26T08:45:49;99863.50;;;28.41;53.81
22283;BME280;11310;51.528;21.204;2023-06-26T08:48:20;99859.13;;;28.40;53.95
22283;BME280;11310;51.528;21.204;2023-06-26T08:50:52;99861.91;;;28.47;50.67
22283;BME280;11310;51.528;21.204;2023-06-26T08:53:28;99863.22;;;28.51;50.65
22283;BME280;11310;51.528;21.204;2023-06-26T08:56:00;99850.78;;;28.71;52.76
22283;BME280;11310;51.528;21.204;2023-06-26T08:58:31;99854.78;;;28.75;51.12
22283;BME280;11310;51.528;21.204;2023-06-26T09:01:00;99854.59;;;28.41;52.22
22283;BME280;11310;51.528;21.204;2023-06-26T09:03:33;99855.19;;;27.99;50.87
22283;BME280;11310;51.528;21.204;2023-06-26T09:06:02;99852.25;;;27.71;53.89
22283;BME280;11310;51.528;21.204;2023-06-26T09:08:31;99848.22;;;27.90;54.48
22283;BME280;11310;51.528;21.204;2023-06-26T09:11:01;99844.78;;;28.10;53.55
22283;BME280;11310;51.528;21.204;2023-06-26T09:13:30;99851.28;;;28.01;53.33
22283;BME280;11310;51.528;21.204;2023-06-26T09:15:59;99844.66;;;27.89;52.87
22283;BME280;11310;51.528;21.204;2023-06-26T09:18:28;99850.47;;;27.64;53.38
22283;BME280;11310;51.528;21.204;2023-06-26T09:20:56;99843.69;;;27.68;55.03
22283;BME280;11310;51.528;21.204;2023-06-26T09:23:26;99837.81;;;28.01;54.37
22283;BME280;11310;51.528;21.204;2023-06-26T09:25:55;99843.25;;;28.37;51.93
22283;BME280;11310;51.528;21.204;2023-06-26T09:28:25;99846.88;;;28.73;49.20
22283;BME280;11310;51.528;21.204;2023-06-26T09:30:54;99841.09;;;28.97;49.49
22283;BME280;11310;51.528;21.204;2023-06-26T09:33:23;99835.03;;;29.10;46.49
22283;BME280;11310;51.528;21.204;2023-06-26T09:35:52;99842.03;;;29.04;47.51
22283;BME280;11310;51.528;21.204;2023-06-26T09:38:21;99837.41;;;28.98;48.23
22283;BME280;11310;51.528;21.204;2023-06-26T09:40:49;99843.41;;;29.15;48.36
22283;BME280;11310;51.528;21.204;2023-06-26T09:43:18;99848.34;;;29.32;46.62
22283;BME280;11310;51.528;21.204;2023-06-26T09:45:48;99846.00;;;29.50;45.71
22283;BME280;11310;51.528;21.204;2023-06-26T09:48:18;99838.13;;;29.55;45.81
22283;BME280;11310;51.528;21.204;2023-06-26T09:50:47;99834.78;;;29.74;47.12
22283;BME280;11310;51.528;21.204;2023-06-26T09:53:36;99827.38;;;29.83;45.44
22283;BME280;11310;51.528;21.204;2023-06-26T09:56:06;99830.91;;;29.56;45.81
22283;BME280;11310;51.528;21.204;2023-06-26T09:58:36;99826.78;;;29.39;46.26
22283;BME280;11310;51.528;21.204;2023-06-26T10:01:07;99827.69;;;29.52;46.58
22283;BME280;11310;51.528;21.204;2023-06-26T10:03:37;99836.00;;;29.72;46.53
22283;BME280;11310;51.528;21.204;2023-06-26T10:06:07;99832.63;;;29.97;45.95
22283;BME280;11310;51.528;21.204;2023-06-26T10:08:38;99829.69;;;30.20;45.45
22283;BME280;11310;51.528;21.204;2023-06-26T10:11:08;99822.25;;;30.35;45.71
22283;BME280;11310;51.528;21.204;2023-06-26T10:13:42;99819.81;;;30.46;44.56
22283;BME280;11310;51.528;21.204;2023-06-26T10:16:18;99822.78;;;30.58;42.01
22283;BME280;11310;51.528;21.204;2023-06-26T10:18:51;99822.84;;;30.71;42.47
22283;BME280;11310;51.528;21.204;2023-06-26T10:21:22;99821.81;;;30.72;41.57
22283;BME280;11310;51.528;21.204;2023-06-26T10:23:51;99810.72;;;30.67;42.76
22283;BME280;11310;51.528;21.204;2023-06-26T10:26:24;99806.41;;;30.72;42.27
22283;BME280;11310;51.528;21.204;2023-06-26T10:28:56;99809.97;;;30.92;43.41
22283;BME280;11310;51.528;21.204;2023-06-26T10:31:31;99814.88;;;30.63;42.35
22283;BME280;11310;51.528;21.204;2023-06-26T10:34:02;99805.56;;;29.97;43.64
22283;BME280;11310;51.528;21.204;2023-06-26T10:36:31;99799.31;;;29.63;44.57
22283;BME280;11310;51.528;21.204;2023-06-26T10:39:03;99789.44;;;29.76;45.08
22283;BME280;11310;51.528;21.204;2023-06-26T10:41:37;99792.81;;;30.12;43.95
22283;BME280;11310;51.528;21.204;2023-06-26T10:44:16;99795.25;;;30.54;43.03
22283;BME280;11310;51.528;21.204;2023-06-26T10:46:50;99806.19;;;30.80;41.96
22283;BME280;11310;51.528;21.204;2023-06-26T10:49:20;99796.22;;;31.00;41.33
22283;BME280;11310;51.528;21.204;2023-06-26T10:51:50;99797.91;;;31.01;41.32
22283;BME280;11310;51.528;21.204;2023-06-26T10:54:19;99789.34;;;31.04;41.64
22283;BME280;11310;51.528;21.204;2023-06-26T10:56:49;99784.75;;;31.11;41.50
22283;BME280;11310;51.528;21.204;2023-06-26T10:59:21;99779.56;;;30.97;41.22
22283;BME280;11310;51.528;21.204;2023-06-26T11:01:56;99784.97;;;30.97;40.61
22283;BME280;11310;51.528;21.204;2023-06-26T11:04:38;99785.81;;;31.17;40.85
22283;BME280;11310;51.528;21.204;2023-06-26T11:07:15;99790.44;;;31.42;40.62
22283;BME280;11310;51.528;21.204;2023-06-26T11:09:55;99784.34;;;31.08;39.91
22283;BME280;11310;51.528;21.204;2023-06-26T11:12:37;99778.72;;;30.96;38.99
22283;BME280;11310;51.528;21.204;2023-06-26T11:15:10;99781.63;;;31.01;41.75
22283;BME280;11310;51.528;21.204;2023-06-26T11:17:43;99775.56;;;31.12;40.89
22283;BME280;11310;51.528;21.204;2023-06-26T11:20:13;99775.69;;;30.65;41.43
22283;BME280;11310;51.528;21.204;2023-06-26T11:22:43;99764.75;;;30.26;41.88
22283;BME280;11310;51.528;21.204;2023-06-26T11:25:12;99763.53;;;30.35;41.53
22283;BME280;11310;51.528;21.204;2023-06-26T11:27:41;99756.53;;;30.67;41.42
22283;BME280;11310;51.528;21.204;2023-06-26T11:30:22;99760.34;;;30.98;40.58
22283;BME280;11310;51.528;21.204;2023-06-26T11:32:52;99757.47;;;31.32;41.04
22283;BME280;11310;51.528;21.204;2023-06-26T11:35:22;99758.09;;;31.47;39.87
22283;BME280;11310;51.528;21.204;2023-06-26T11:37:57;99747.03;;;31.42;39.32
22283;BME280;11310;51.528;21.204;2023-06-26T11:40:31;99752.00;;;30.93;40.40
22283;BME280;11310;51.528;21.204;2023-06-26T11:43:01;99764.41;;;30.49;41.46
22283;BME280;11310;51.528;21.204;2023-06-26T11:45:31;99763.03;;;30.19;41.88
22283;BME280;11310;51.528;21.204;2023-06-26T11:48:02;99761.03;;;30.34;43.13
22283;BME280;11310;51.528;21.204;2023-06-26T11:50:31;99753.34;;;30.44;43.19
22283;BME280;11310;51.528;21.204;2023-06-26T11:53:00;99756.44;;;30.41;42.43
22283;BME280;11310;51.528;21.204;2023-06-26T11:55:40;99753.56;;;30.02;41.38
22283;BME280;11310;51.528;21.204;2023-06-26T11:58:10;99753.81;;;29.45;43.82
22283;BME280;11310;51.528;21.204;2023-06-26T12:00:41;99747.09;;;29.07;44.53
22283;BME280;11310;51.528;21.204;2023-06-26T12:03:12;99742.88;;;28.84;44.57
22283;BME280;11310;51.528;21.204;2023-06-26T12:05:41;99745.78;;;28.82;44.94
22283;BME280;11310;51.528;21.204;2023-06-26T12:08:12;99745.38;;;29.06;46.49
22283;BME280;11310;51.528;21.204;2023-06-26T12:10:41;99743.72;;;29.26;44.90
22283;BME280;11310;51.528;21.204;2023-06-26T12:13:10;99736.94;;;29.43;45.29
22283;BME280;11310;51.528;21.204;2023-06-26T12:15:39;99738.06;;;29.55;44.09
22283;BME280;11310;51.528;21.204;2023-06-26T12:18:09;99731.66;;;29.90;44.21
22283;BME280;11310;51.528;21.204;2023-06-26T12:20:41;99737.69;;;30.26;42.84
22283;BME280;11310;51.528;21.204;2023-06-26T12:23:13;99735.88;;;30.59;41.68
22283;BME280;11310;51.528;21.204;2023-06-26T12:25:43;99741.59;;;30.77;41.75
22283;BME280;11310;51.528;21.204;2023-06-26T12:28:16;99743.25;;;30.91;41.61
22283;BME280;11310;51.528;21.204;2023-06-26T12:31:14;99734.72;;;31.07;40.20
22283;BME280;11310;51.528;21.204;2023-06-26T12:33:43;99732.22;;;31.25;41.42
22283;BME280;11310;51.528;21.204;2023-06-26T12:36:14;99732.88;;;31.27;41.52
22283;BME280;11310;51.528;21.204;2023-06-26T12:38:45;99727.84;;;31.31;41.84
22283;BME280;11310;51.528;21.204;2023-06-26T12:41:14;99720.50;;;31.51;41.21
22283;BME280;11310;51.528;21.204;2023-06-26T12:43:43;99719.03;;;31.61;40.44
22283;BME280;11310;51.528;21.204;2023-06-26T12:46:12;99713.41;;;31.56;40.97
22283;BME280;11310;51.528;21.204;2023-06-26T12:48:42;99714.47;;;31.55;39.83
22283;BME280;11310;51.528;21.204;2023-06-26T12:51:16;99712.38;;;31.51;40.36
22283;BME280;11310;51.528;21.204;2023-06-26T12:53:45;99714.00;;;31.65;39.91
22283;BME280;11310;51.528;21.204;2023-06-26T12:56:14;99716.50;;;31.66;40.20
22283;BME280;11310;51.528;21.204;2023-06-26T12:58:43;99713.63;;;31.48;40.34
22283;BME280;11310;51.528;21.204;2023-06-26T13:01:12;99704.88;;;31.07;40.79
22283;BME280;11310;51.528;21.204;2023-06-26T13:03:42;99709.41;;;30.61;40.85